Etusivu
METAR-TAF:

METAR-TAF

Lentoasemat :

Irkutsk, Venäjä

Irkutskin lentoasema

Leveyspiiri: 52-16N, Pituuspiiri: 104-19E, korkeus merenpinnasta: 513 m

Tämänhetkinen sää

Tämä raportti tehtiin 24 minuuttia sitten, kello 15.30 UTC
Tuuli 4 kn idästä/kaakosta, vaihdellen idän/koillisen ja kaakon välillä
Lämpötila -18°C
Kosteus 92%
Ilmanpaine 1028 hPa
Näkyvyys 10 km tai enemmän
ei pilviä alle 1500 m:ssä eikä cumulonimbus-pilviä

METAR: UIII 191530Z 11002MPS 070V140 CAVOK M18/M19 Q1028 R12/820550 NOSIG RMK QFE728/0971

Aika: 23:54 (15:54 UTC)

Sääennuste

Tämä raportti tehtiin 1 tunti ja 54 minuuttia sitten, kello 14.00 UTC
Ennuste voimassa 19. päivästä klo 15 UTC - 20. päivään klo 15 UTC
Tuuli 2 kn eri suunnista
Näkyvyys: 5000 m
savua
Ajoittain
19. päivästä klo 15 UTC - 20. päivään klo 03 UTC
Näkyvyys: 0300 m
100 ft:n korkeudessa
jäätävää sumua

TAF: UIII 191400Z 1915/2015 VRB01MPS 5000 FU NSC TEMPO 1915/2003 0300 FZFG VV001

Säähavainnot ja -ennusteet yli 4000 lentoasemalta (METAR- ja TAF-raportit).

Käytössä olevat sääasemat on merkitty karttaan keltaisilla ja punaisilla pisteillä.

Aseta hiiri pisteen päälle nähdäksesi sääaseman nimen.

Klikkaa sitten nähdäksesi säähavainnot ja -ennusteet.

Kartan vaihtaminen: klikkaa mustalla rastilla varustettuja vihreitä pisteitä, niin voit zoomata sisään; viivalla varustettua vihreää pistettä, niin voit zoomata ulos tai vihreitä nuolia, niin pääset viereisille kartoille.


METAR-TAF: